sensor_id;sensor_type;location;lat;lon;timestamp;P1;durP1;ratioP1;P2;durP2;ratioP2
68680;SDS011;55836;49.858;6.756;2023-02-26T00:00:36;6.00;;;2.77;;
68680;SDS011;55836;49.858;6.756;2023-02-26T00:03:03;4.13;;;2.57;;
68680;SDS011;55836;49.858;6.756;2023-02-26T00:05:30;4.07;;;1.73;;
68680;SDS011;55836;49.858;6.756;2023-02-26T00:07:56;6.97;;;2.60;;
68680;SDS011;55836;49.858;6.756;2023-02-26T00:10:22;5.73;;;2.60;;
68680;SDS011;55836;49.858;6.756;2023-02-26T00:12:48;6.90;;;2.40;;
68680;SDS011;55836;49.858;6.756;2023-02-26T00:15:14;4.10;;;2.03;;
68680;SDS011;55836;49.858;6.756;2023-02-26T00:17:44;5.37;;;2.40;;
68680;SDS011;55836;49.858;6.756;2023-02-26T00:20:13;6.57;;;2.90;;
68680;SDS011;55836;49.858;6.756;2023-02-26T00:22:41;7.30;;;2.47;;
68680;SDS011;55836;49.858;6.756;2023-02-26T00:25:07;3.20;;;2.30;;
68680;SDS011;55836;49.858;6.756;2023-02-26T00:27:34;2.97;;;2.17;;
68680;SDS011;55836;49.858;6.756;2023-02-26T00:30:02;7.87;;;2.60;;
68680;SDS011;55836;49.858;6.756;2023-02-26T00:32:28;6.37;;;2.13;;
68680;SDS011;55836;49.858;6.756;2023-02-26T00:34:57;7.97;;;1.97;;
68680;SDS011;55836;49.858;6.756;2023-02-26T00:37:26;8.73;;;2.70;;
68680;SDS011;55836;49.858;6.756;2023-02-26T00:40:00;4.50;;;2.57;;
68680;SDS011;55836;49.858;6.756;2023-02-26T00:42:30;3.13;;;1.73;;
68680;SDS011;55836;49.858;6.756;2023-02-26T00:44:56;6.03;;;2.47;;
68680;SDS011;55836;49.858;6.756;2023-02-26T00:47:25;3.37;;;1.93;;
68680;SDS011;55836;49.858;6.756;2023-02-26T00:55:14;5.77;;;2.40;;
68680;SDS011;55836;49.858;6.756;2023-02-26T00:57:40;4.07;;;1.80;;
68680;SDS011;55836;49.858;6.756;2023-02-26T01:00:06;2.80;;;2.13;;
68680;SDS011;55836;49.858;6.756;2023-02-26T01:02:33;5.27;;;1.90;;
68680;SDS011;55836;49.858;6.756;2023-02-26T01:04:59;4.67;;;2.07;;
68680;SDS011;55836;49.858;6.756;2023-02-26T01:07:25;6.13;;;1.83;;
68680;SDS011;55836;49.858;6.756;2023-02-26T01:09:53;5.57;;;2.40;;
68680;SDS011;55836;49.858;6.756;2023-02-26T01:12:19;6.70;;;1.93;;
68680;SDS011;55836;49.858;6.756;2023-02-26T01:14:45;4.83;;;1.77;;
68680;SDS011;55836;49.858;6.756;2023-02-26T01:17:20;3.90;;;2.03;;
68680;SDS011;55836;49.858;6.756;2023-02-26T01:20:01;2.60;;;1.80;;
68680;SDS011;55836;49.858;6.756;2023-02-26T01:22:33;4.87;;;2.17;;
68680;SDS011;55836;49.858;6.756;2023-02-26T01:25:11;5.20;;;2.33;;
68680;SDS011;55836;49.858;6.756;2023-02-26T01:27:38;6.77;;;2.50;;
68680;SDS011;55836;49.858;6.756;2023-02-26T01:30:04;3.37;;;2.20;;
68680;SDS011;55836;49.858;6.756;2023-02-26T01:32:41;5.17;;;2.27;;
68680;SDS011;55836;49.858;6.756;2023-02-26T01:38:01;6.20;;;2.30;;
68680;SDS011;55836;49.858;6.756;2023-02-26T01:42:57;7.83;;;2.73;;
68680;SDS011;55836;49.858;6.756;2023-02-26T01:45:31;7.33;;;3.73;;
68680;SDS011;55836;49.858;6.756;2023-02-26T01:48:02;4.60;;;2.27;;
68680;SDS011;55836;49.858;6.756;2023-02-26T01:50:29;7.23;;;3.47;;
68680;SDS011;55836;49.858;6.756;2023-02-26T01:55:26;4.43;;;2.67;;
68680;SDS011;55836;49.858;6.756;2023-02-26T01:57:54;6.37;;;2.23;;
68680;SDS011;55836;49.858;6.756;2023-02-26T02:00:20;6.97;;;3.47;;
68680;SDS011;55836;49.858;6.756;2023-02-26T02:02:47;6.60;;;3.03;;
68680;SDS011;55836;49.858;6.756;2023-02-26T02:05:16;6.33;;;2.70;;
68680;SDS011;55836;49.858;6.756;2023-02-26T02:07:44;6.73;;;2.50;;
68680;SDS011;55836;49.858;6.756;2023-02-26T02:10:10;10.07;;;2.93;;
68680;SDS011;55836;49.858;6.756;2023-02-26T02:15:05;5.73;;;3.20;;
68680;SDS011;55836;49.858;6.756;2023-02-26T02:22:45;7.57;;;3.27;;
68680;SDS011;55836;49.858;6.756;2023-02-26T02:25:30;6.53;;;2.73;;
68680;SDS011;55836;49.858;6.756;2023-02-26T02:28:15;3.10;;;2.80;;
68680;SDS011;55836;49.858;6.756;2023-02-26T02:33:37;5.80;;;3.00;;
68680;SDS011;55836;49.858;6.756;2023-02-26T02:36:11;8.40;;;3.13;;
68680;SDS011;55836;49.858;6.756;2023-02-26T02:38:45;6.13;;;3.23;;
68680;SDS011;55836;49.858;6.756;2023-02-26T02:41:18;7.07;;;3.40;;
68680;SDS011;55836;49.858;6.756;2023-02-26T02:43:44;10.97;;;3.40;;
68680;SDS011;55836;49.858;6.756;2023-02-26T02:46:13;6.43;;;4.10;;
68680;SDS011;55836;49.858;6.756;2023-02-26T02:48:46;6.13;;;3.13;;
68680;SDS011;55836;49.858;6.756;2023-02-26T02:51:14;10.47;;;3.73;;
68680;SDS011;55836;49.858;6.756;2023-02-26T02:53:51;6.73;;;3.03;;
68680;SDS011;55836;49.858;6.756;2023-02-26T02:56:18;6.47;;;3.07;;
68680;SDS011;55836;49.858;6.756;2023-02-26T02:58:50;6.20;;;3.23;;
68680;SDS011;55836;49.858;6.756;2023-02-26T03:01:18;5.50;;;3.63;;
68680;SDS011;55836;49.858;6.756;2023-02-26T03:04:05;6.53;;;3.47;;
68680;SDS011;55836;49.858;6.756;2023-02-26T03:06:32;6.93;;;3.20;;
68680;SDS011;55836;49.858;6.756;2023-02-26T03:08:59;6.87;;;4.23;;
68680;SDS011;55836;49.858;6.756;2023-02-26T03:11:25;8.53;;;3.43;;
68680;SDS011;55836;49.858;6.756;2023-02-26T03:13:51;5.03;;;3.10;;
68680;SDS011;55836;49.858;6.756;2023-02-26T03:19:10;4.70;;;3.10;;
68680;SDS011;55836;49.858;6.756;2023-02-26T03:27:08;5.00;;;3.40;;
68680;SDS011;55836;49.858;6.756;2023-02-26T03:32:02;5.80;;;3.93;;
68680;SDS011;55836;49.858;6.756;2023-02-26T03:37:07;4.50;;;3.60;;
68680;SDS011;55836;49.858;6.756;2023-02-26T03:39:36;4.97;;;3.20;;
68680;SDS011;55836;49.858;6.756;2023-02-26T03:44:39;5.70;;;3.30;;
68680;SDS011;55836;49.858;6.756;2023-02-26T03:47:09;5.40;;;3.20;;
68680;SDS011;55836;49.858;6.756;2023-02-26T03:49:41;6.37;;;3.10;;
68680;SDS011;55836;49.858;6.756;2023-02-26T03:52:08;8.47;;;3.37;;
68680;SDS011;55836;49.858;6.756;2023-02-26T03:54:36;5.50;;;3.10;;
68680;SDS011;55836;49.858;6.756;2023-02-26T03:57:03;4.87;;;3.00;;
68680;SDS011;55836;49.858;6.756;2023-02-26T03:59:30;5.00;;;3.37;;
68680;SDS011;55836;49.858;6.756;2023-02-26T04:02:04;8.07;;;3.20;;
68680;SDS011;55836;49.858;6.756;2023-02-26T04:04:44;7.63;;;3.27;;
68680;SDS011;55836;49.858;6.756;2023-02-26T04:07:11;4.37;;;3.57;;
68680;SDS011;55836;49.858;6.756;2023-02-26T04:09:41;3.40;;;2.80;;
68680;SDS011;55836;49.858;6.756;2023-02-26T04:12:07;7.30;;;3.03;;
68680;SDS011;55836;49.858;6.756;2023-02-26T04:14:33;6.30;;;3.27;;
68680;SDS011;55836;49.858;6.756;2023-02-26T04:16:59;4.43;;;3.20;;
68680;SDS011;55836;49.858;6.756;2023-02-26T04:19:26;6.53;;;4.00;;
68680;SDS011;55836;49.858;6.756;2023-02-26T04:21:52;6.50;;;3.10;;
68680;SDS011;55836;49.858;6.756;2023-02-26T04:24:18;6.10;;;3.23;;
68680;SDS011;55836;49.858;6.756;2023-02-26T04:26:47;6.77;;;2.73;;
68680;SDS011;55836;49.858;6.756;2023-02-26T04:29:13;4.20;;;2.90;;
68680;SDS011;55836;49.858;6.756;2023-02-26T04:31:39;4.77;;;3.37;;
68680;SDS011;55836;49.858;6.756;2023-02-26T04:34:05;3.60;;;2.80;;
68680;SDS011;55836;49.858;6.756;2023-02-26T04:36:31;3.80;;;3.00;;
68680;SDS011;55836;49.858;6.756;2023-02-26T04:38:57;7.07;;;2.97;;
68680;SDS011;55836;49.858;6.756;2023-02-26T04:41:23;4.33;;;2.73;;
68680;SDS011;55836;49.858;6.756;2023-02-26T04:43:49;4.80;;;2.90;;
68680;SDS011;55836;49.858;6.756;2023-02-26T04:46:15;5.83;;;3.20;;
68680;SDS011;55836;49.858;6.756;2023-02-26T04:48:41;7.27;;;3.07;;
68680;SDS011;55836;49.858;6.756;2023-02-26T04:51:07;8.23;;;3.00;;
68680;SDS011;55836;49.858;6.756;2023-02-26T04:53:33;6.20;;;4.10;;
68680;SDS011;55836;49.858;6.756;2023-02-26T04:55:59;6.53;;;3.27;;
68680;SDS011;55836;49.858;6.756;2023-02-26T04:58:26;7.30;;;2.80;;
68680;SDS011;55836;49.858;6.756;2023-02-26T05:00:52;3.87;;;2.80;;
68680;SDS011;55836;49.858;6.756;2023-02-26T05:03:19;3.17;;;2.87;;
68680;SDS011;55836;49.858;6.756;2023-02-26T05:05:45;6.07;;;3.20;;
68680;SDS011;55836;49.858;6.756;2023-02-26T05:08:11;5.50;;;3.20;;
68680;SDS011;55836;49.858;6.756;2023-02-26T05:10:37;6.07;;;3.13;;
68680;SDS011;55836;49.858;6.756;2023-02-26T05:13:04;5.77;;;3.10;;
68680;SDS011;55836;49.858;6.756;2023-02-26T05:15:30;8.30;;;3.60;;
68680;SDS011;55836;49.858;6.756;2023-02-26T05:17:56;3.70;;;3.07;;
68680;SDS011;55836;49.858;6.756;2023-02-26T05:20:22;5.33;;;3.40;;
68680;SDS011;55836;49.858;6.756;2023-02-26T05:22:48;5.93;;;4.10;;
68680;SDS011;55836;49.858;6.756;2023-02-26T05:25:14;6.40;;;3.47;;
68680;SDS011;55836;49.858;6.756;2023-02-26T05:27:40;6.00;;;3.53;;
68680;SDS011;55836;49.858;6.756;2023-02-26T05:30:08;6.07;;;3.07;;
68680;SDS011;55836;49.858;6.756;2023-02-26T05:32:36;3.70;;;3.30;;
68680;SDS011;55836;49.858;6.756;2023-02-26T05:35:02;4.60;;;3.40;;
68680;SDS011;55836;49.858;6.756;2023-02-26T05:37:28;5.50;;;3.57;;
68680;SDS011;55836;49.858;6.756;2023-02-26T05:39:54;5.37;;;3.57;;
68680;SDS011;55836;49.858;6.756;2023-02-26T05:42:20;5.10;;;3.73;;
68680;SDS011;55836;49.858;6.756;2023-02-26T05:44:46;7.03;;;3.63;;
68680;SDS011;55836;49.858;6.756;2023-02-26T05:47:12;4.57;;;3.20;;
68680;SDS011;55836;49.858;6.756;2023-02-26T05:49:38;6.33;;;3.67;;
68680;SDS011;55836;49.858;6.756;2023-02-26T05:52:04;6.47;;;3.87;;
68680;SDS011;55836;49.858;6.756;2023-02-26T05:54:30;4.97;;;3.13;;
68680;SDS011;55836;49.858;6.756;2023-02-26T05:56:56;7.00;;;3.67;;
68680;SDS011;55836;49.858;6.756;2023-02-26T05:59:22;6.03;;;3.70;;
68680;SDS011;55836;49.858;6.756;2023-02-26T06:01:48;6.57;;;4.00;;
68680;SDS011;55836;49.858;6.756;2023-02-26T06:04:14;5.87;;;3.47;;
68680;SDS011;55836;49.858;6.756;2023-02-26T06:06:40;5.90;;;3.93;;
68680;SDS011;55836;49.858;6.756;2023-02-26T06:09:06;4.40;;;3.50;;
68680;SDS011;55836;49.858;6.756;2023-02-26T06:11:33;6.30;;;3.43;;
68680;SDS011;55836;49.858;6.756;2023-02-26T06:13:59;7.93;;;3.63;;
68680;SDS011;55836;49.858;6.756;2023-02-26T06:16:25;7.53;;;3.93;;
68680;SDS011;55836;49.858;6.756;2023-02-26T06:18:51;5.47;;;3.50;;
68680;SDS011;55836;49.858;6.756;2023-02-26T06:21:17;5.00;;;3.90;;
68680;SDS011;55836;49.858;6.756;2023-02-26T06:23:43;5.10;;;3.83;;
68680;SDS011;55836;49.858;6.756;2023-02-26T06:28:47;5.73;;;3.87;;
68680;SDS011;55836;49.858;6.756;2023-02-26T06:31:13;5.00;;;3.47;;
68680;SDS011;55836;49.858;6.756;2023-02-26T06:33:39;9.27;;;4.37;;
68680;SDS011;55836;49.858;6.756;2023-02-26T06:36:05;5.63;;;3.93;;
68680;SDS011;55836;49.858;6.756;2023-02-26T06:38:32;4.73;;;3.63;;
68680;SDS011;55836;49.858;6.756;2023-02-26T06:40:58;7.77;;;3.63;;
68680;SDS011;55836;49.858;6.756;2023-02-26T06:46:00;5.27;;;3.43;;
68680;SDS011;55836;49.858;6.756;2023-02-26T06:48:26;6.00;;;4.33;;
68680;SDS011;55836;49.858;6.756;2023-02-26T06:50:52;9.63;;;3.83;;
68680;SDS011;55836;49.858;6.756;2023-02-26T06:53:18;5.97;;;3.30;;
68680;SDS011;55836;49.858;6.756;2023-02-26T06:55:45;6.00;;;3.87;;
68680;SDS011;55836;49.858;6.756;2023-02-26T06:58:11;6.70;;;3.27;;
68680;SDS011;55836;49.858;6.756;2023-02-26T07:00:38;4.13;;;3.13;;
68680;SDS011;55836;49.858;6.756;2023-02-26T07:03:20;6.20;;;3.63;;
68680;SDS011;55836;49.858;6.756;2023-02-26T07:05:46;6.37;;;3.07;;
68680;SDS011;55836;49.858;6.756;2023-02-26T07:08:12;4.33;;;2.57;;
68680;SDS011;55836;49.858;6.756;2023-02-26T07:10:38;5.43;;;2.97;;
68680;SDS011;55836;49.858;6.756;2023-02-26T07:13:05;5.07;;;2.97;;
68680;SDS011;55836;49.858;6.756;2023-02-26T07:15:31;4.20;;;3.10;;
68680;SDS011;55836;49.858;6.756;2023-02-26T07:17:57;6.73;;;3.07;;
68680;SDS011;55836;49.858;6.756;2023-02-26T07:23:00;5.10;;;3.40;;
68680;SDS011;55836;49.858;6.756;2023-02-26T07:25:26;9.07;;;3.80;;
68680;SDS011;55836;49.858;6.756;2023-02-26T07:27:52;6.67;;;3.63;;
68680;SDS011;55836;49.858;6.756;2023-02-26T07:30:19;6.83;;;4.30;;
68680;SDS011;55836;49.858;6.756;2023-02-26T07:32:45;5.57;;;3.30;;
68680;SDS011;55836;49.858;6.756;2023-02-26T07:37:38;5.37;;;3.30;;
68680;SDS011;55836;49.858;6.756;2023-02-26T07:40:04;4.20;;;3.37;;
68680;SDS011;55836;49.858;6.756;2023-02-26T07:42:30;5.77;;;3.30;;
68680;SDS011;55836;49.858;6.756;2023-02-26T07:44:56;5.50;;;2.97;;
68680;SDS011;55836;49.858;6.756;2023-02-26T07:47:23;6.57;;;3.57;;
68680;SDS011;55836;49.858;6.756;2023-02-26T07:49:49;6.77;;;3.20;;
68680;SDS011;55836;49.858;6.756;2023-02-26T07:52:16;7.17;;;3.53;;
68680;SDS011;55836;49.858;6.756;2023-02-26T07:54:42;4.73;;;3.07;;
68680;SDS011;55836;49.858;6.756;2023-02-26T07:57:08;5.63;;;3.90;;
68680;SDS011;55836;49.858;6.756;2023-02-26T07:59:34;6.03;;;3.20;;
68680;SDS011;55836;49.858;6.756;2023-02-26T08:02:00;6.63;;;3.37;;
68680;SDS011;55836;49.858;6.756;2023-02-26T08:04:26;4.13;;;2.90;;
68680;SDS011;55836;49.858;6.756;2023-02-26T08:06:52;6.73;;;3.23;;
68680;SDS011;55836;49.858;6.756;2023-02-26T08:09:20;7.40;;;2.90;;
68680;SDS011;55836;49.858;6.756;2023-02-26T08:11:46;5.87;;;3.37;;
68680;SDS011;55836;49.858;6.756;2023-02-26T08:14:12;5.70;;;2.83;;
68680;SDS011;55836;49.858;6.756;2023-02-26T08:16:38;4.43;;;3.63;;
68680;SDS011;55836;49.858;6.756;2023-02-26T08:19:04;4.30;;;3.00;;
68680;SDS011;55836;49.858;6.756;2023-02-26T08:21:30;4.43;;;3.40;;
68680;SDS011;55836;49.858;6.756;2023-02-26T08:23:56;5.83;;;3.43;;
68680;SDS011;55836;49.858;6.756;2023-02-26T08:26:22;4.33;;;2.93;;
68680;SDS011;55836;49.858;6.756;2023-02-26T08:28:48;5.10;;;2.77;;
68680;SDS011;55836;49.858;6.756;2023-02-26T08:31:14;4.73;;;2.90;;
68680;SDS011;55836;49.858;6.756;2023-02-26T08:33:41;3.53;;;2.73;;
68680;SDS011;55836;49.858;6.756;2023-02-26T08:36:10;5.53;;;3.30;;
68680;SDS011;55836;49.858;6.756;2023-02-26T08:38:36;5.53;;;2.70;;
68680;SDS011;55836;49.858;6.756;2023-02-26T08:41:02;6.97;;;3.30;;
68680;SDS011;55836;49.858;6.756;2023-02-26T08:43:28;4.87;;;2.53;;
68680;SDS011;55836;49.858;6.756;2023-02-26T08:45:55;5.83;;;2.83;;
68680;SDS011;55836;49.858;6.756;2023-02-26T08:48:22;4.63;;;2.50;;
68680;SDS011;55836;49.858;6.756;2023-02-26T08:50:48;4.47;;;2.90;;
68680;SDS011;55836;49.858;6.756;2023-02-26T08:53:14;4.50;;;3.00;;
68680;SDS011;55836;49.858;6.756;2023-02-26T08:55:41;4.30;;;2.60;;
68680;SDS011;55836;49.858;6.756;2023-02-26T08:58:09;4.47;;;2.63;;
68680;SDS011;55836;49.858;6.756;2023-02-26T09:00:35;4.97;;;2.60;;
68680;SDS011;55836;49.858;6.756;2023-02-26T09:03:01;4.73;;;2.97;;
68680;SDS011;55836;49.858;6.756;2023-02-26T09:05:27;4.43;;;3.07;;
68680;SDS011;55836;49.858;6.756;2023-02-26T09:07:53;5.23;;;3.70;;
68680;SDS011;55836;49.858;6.756;2023-02-26T09:10:19;4.20;;;2.97;;
68680;SDS011;55836;49.858;6.756;2023-02-26T09:12:45;5.73;;;3.40;;
68680;SDS011;55836;49.858;6.756;2023-02-26T09:15:12;6.20;;;2.60;;
68680;SDS011;55836;49.858;6.756;2023-02-26T09:17:38;3.80;;;2.90;;
68680;SDS011;55836;49.858;6.756;2023-02-26T09:20:04;4.07;;;2.30;;
68680;SDS011;55836;49.858;6.756;2023-02-26T09:22:31;5.97;;;3.17;;
68680;SDS011;55836;49.858;6.756;2023-02-26T09:24:57;6.67;;;2.40;;
68680;SDS011;55836;49.858;6.756;2023-02-26T09:27:23;4.90;;;2.40;;
68680;SDS011;55836;49.858;6.756;2023-02-26T09:29:49;5.87;;;3.13;;
68680;SDS011;55836;49.858;6.756;2023-02-26T09:32:15;4.13;;;2.67;;
68680;SDS011;55836;49.858;6.756;2023-02-26T09:34:41;3.57;;;2.40;;
68680;SDS011;55836;49.858;6.756;2023-02-26T09:37:07;4.30;;;2.33;;
68680;SDS011;55836;49.858;6.756;2023-02-26T09:39:34;2.53;;;2.13;;
68680;SDS011;55836;49.858;6.756;2023-02-26T09:42:10;4.73;;;2.60;;
68680;SDS011;55836;49.858;6.756;2023-02-26T09:44:39;3.93;;;2.20;;
68680;SDS011;55836;49.858;6.756;2023-02-26T09:54:43;2.73;;;1.83;;
68680;SDS011;55836;49.858;6.756;2023-02-26T09:57:12;3.57;;;1.80;;
68680;SDS011;55836;49.858;6.756;2023-02-26T09:59:40;4.67;;;2.27;;
68680;SDS011;55836;49.858;6.756;2023-02-26T10:02:13;3.90;;;2.13;;
68680;SDS011;55836;49.858;6.756;2023-02-26T10:12:28;4.00;;;1.93;;
68680;SDS011;55836;49.858;6.756;2023-02-26T10:14:56;3.63;;;2.53;;
68680;SDS011;55836;49.858;6.756;2023-02-26T10:20:20;4.27;;;1.70;;
68680;SDS011;55836;49.858;6.756;2023-02-26T10:22:56;3.23;;;1.80;;
68680;SDS011;55836;49.858;6.756;2023-02-26T10:25:26;2.03;;;1.80;;
68680;SDS011;55836;49.858;6.756;2023-02-26T10:28:00;3.77;;;1.70;;
68680;SDS011;55836;49.858;6.756;2023-02-26T10:35:41;1.83;;;1.73;;
68680;SDS011;55836;49.858;6.756;2023-02-26T10:38:11;2.60;;;1.90;;
68680;SDS011;55836;49.858;6.756;2023-02-26T10:43:21;3.10;;;1.90;;
68680;SDS011;55836;49.858;6.756;2023-02-26T10:51:22;1.87;;;1.60;;
68680;SDS011;55836;49.858;6.756;2023-02-26T10:53:59;3.50;;;2.20;;
68680;SDS011;55836;49.858;6.756;2023-02-26T10:56:29;3.47;;;1.93;;
68680;SDS011;55836;49.858;6.756;2023-02-26T10:58:55;4.63;;;2.13;;
68680;SDS011;55836;49.858;6.756;2023-02-26T11:01:22;3.70;;;1.63;;
68680;SDS011;55836;49.858;6.756;2023-02-26T11:03:50;3.60;;;1.70;;
68680;SDS011;55836;49.858;6.756;2023-02-26T11:06:23;2.00;;;1.60;;
68680;SDS011;55836;49.858;6.756;2023-02-26T11:08:53;2.40;;;1.50;;
68680;SDS011;55836;49.858;6.756;2023-02-26T11:14:04;2.77;;;2.17;;
68680;SDS011;55836;49.858;6.756;2023-02-26T11:16:31;6.20;;;2.90;;
68680;SDS011;55836;49.858;6.756;2023-02-26T11:18:57;3.93;;;1.73;;
68680;SDS011;55836;49.858;6.756;2023-02-26T11:21:28;3.17;;;1.53;;
68680;SDS011;55836;49.858;6.756;2023-02-26T11:23:58;3.23;;;1.63;;
68680;SDS011;55836;49.858;6.756;2023-02-26T11:26:27;2.07;;;1.70;;
68680;SDS011;55836;49.858;6.756;2023-02-26T11:28:55;5.67;;;1.73;;
68680;SDS011;55836;49.858;6.756;2023-02-26T11:31:24;1.97;;;1.60;;
68680;SDS011;55836;49.858;6.756;2023-02-26T11:34:04;1.80;;;1.60;;
68680;SDS011;55836;49.858;6.756;2023-02-26T11:36:31;4.00;;;1.67;;
68680;SDS011;55836;49.858;6.756;2023-02-26T11:41:30;1.93;;;1.73;;
68680;SDS011;55836;49.858;6.756;2023-02-26T11:44:01;2.00;;;1.43;;
68680;SDS011;55836;49.858;6.756;2023-02-26T11:46:30;3.60;;;1.87;;
68680;SDS011;55836;49.858;6.756;2023-02-26T11:48:57;1.73;;;1.60;;
68680;SDS011;55836;49.858;6.756;2023-02-26T11:51:24;4.03;;;1.70;;
68680;SDS011;55836;49.858;6.756;2023-02-26T11:53:52;3.50;;;2.00;;
68680;SDS011;55836;49.858;6.756;2023-02-26T11:56:26;2.10;;;1.63;;
68680;SDS011;55836;49.858;6.756;2023-02-26T11:58:54;1.73;;;1.37;;
68680;SDS011;55836;49.858;6.756;2023-02-26T12:01:25;1.43;;;1.10;;
68680;SDS011;55836;49.858;6.756;2023-02-26T12:03:51;1.90;;;1.40;;
68680;SDS011;55836;49.858;6.756;2023-02-26T12:06:18;4.77;;;1.90;;
68680;SDS011;55836;49.858;6.756;2023-02-26T12:08:44;1.80;;;1.40;;
68680;SDS011;55836;49.858;6.756;2023-02-26T12:16:16;2.40;;;1.40;;
68680;SDS011;55836;49.858;6.756;2023-02-26T12:18:50;1.60;;;1.20;;
68680;SDS011;55836;49.858;6.756;2023-02-26T12:26:36;2.63;;;1.60;;
68680;SDS011;55836;49.858;6.756;2023-02-26T12:52:48;1.00;;;1.00;;
68680;SDS011;55836;49.858;6.756;2023-02-26T13:08:03;1.63;;;1.40;;
68680;SDS011;55836;49.858;6.756;2023-02-26T13:15:47;1.30;;;1.20;;
68680;SDS011;55836;49.858;6.756;2023-02-26T13:21:08;1.77;;;1.07;;
68680;SDS011;55836;49.858;6.756;2023-02-26T13:23:43;2.23;;;1.50;;
68680;SDS011;55836;49.858;6.756;2023-02-26T13:26:11;5.37;;;2.73;;
68680;SDS011;55836;49.858;6.756;2023-02-26T13:31:10;2.77;;;1.17;;
68680;SDS011;55836;49.858;6.756;2023-02-26T13:33:38;1.13;;;1.03;;
68680;SDS011;55836;49.858;6.756;2023-02-26T13:36:05;2.87;;;1.00;;
68680;SDS011;55836;49.858;6.756;2023-02-26T13:51:43;1.57;;;1.20;;
68680;SDS011;55836;49.858;6.756;2023-02-26T14:14:24;1.77;;;1.47;;
68680;SDS011;55836;49.858;6.756;2023-02-26T14:17:17;1.27;;;1.10;;
68680;SDS011;55836;49.858;6.756;2023-02-26T14:20:05;2.87;;;1.20;;
68680;SDS011;55836;49.858;6.756;2023-02-26T14:22:34;2.07;;;1.97;;
68680;SDS011;55836;49.858;6.756;2023-02-26T14:27:40;1.53;;;1.43;;
68680;SDS011;55836;49.858;6.756;2023-02-26T14:32:33;2.27;;;1.20;;
68680;SDS011;55836;49.858;6.756;2023-02-26T14:35:10;1.60;;;1.50;;
68680;SDS011;55836;49.858;6.756;2023-02-26T14:37:37;1.50;;;1.40;;
68680;SDS011;55836;49.858;6.756;2023-02-26T14:40:06;3.57;;;1.67;;
68680;SDS011;55836;49.858;6.756;2023-02-26T14:42:49;3.10;;;1.43;;
68680;SDS011;55836;49.858;6.756;2023-02-26T14:47:46;1.20;;;1.10;;
68680;SDS011;55836;49.858;6.756;2023-02-26T14:50:20;2.03;;;1.20;;
68680;SDS011;55836;49.858;6.756;2023-02-26T15:06:24;0.90;;;0.90;;
68680;SDS011;55836;49.858;6.756;2023-02-26T15:11:30;1.63;;;1.10;;
68680;SDS011;55836;49.858;6.756;2023-02-26T15:19:01;2.80;;;1.10;;
68680;SDS011;55836;49.858;6.756;2023-02-26T15:24:17;6.60;;;3.20;;
68680;SDS011;55836;49.858;6.756;2023-02-26T15:26:45;1.97;;;1.57;;
68680;SDS011;55836;49.858;6.756;2023-02-26T15:29:12;1.80;;;1.30;;
68680;SDS011;55836;49.858;6.756;2023-02-26T15:31:43;3.73;;;1.10;;
68680;SDS011;55836;49.858;6.756;2023-02-26T15:34:13;1.43;;;1.23;;
68680;SDS011;55836;49.858;6.756;2023-02-26T15:36:44;3.83;;;1.40;;
68680;SDS011;55836;49.858;6.756;2023-02-26T15:39:12;1.40;;;1.30;;
68680;SDS011;55836;49.858;6.756;2023-02-26T15:41:39;2.80;;;1.10;;
68680;SDS011;55836;49.858;6.756;2023-02-26T15:44:06;2.53;;;2.17;;
68680;SDS011;55836;49.858;6.756;2023-02-26T15:46:35;1.97;;;1.43;;
68680;SDS011;55836;49.858;6.756;2023-02-26T15:49:09;1.50;;;1.40;;
68680;SDS011;55836;49.858;6.756;2023-02-26T15:51:37;1.90;;;1.60;;
68680;SDS011;55836;49.858;6.756;2023-02-26T15:54:04;2.03;;;1.20;;
68680;SDS011;55836;49.858;6.756;2023-02-26T15:56:35;1.10;;;1.00;;
68680;SDS011;55836;49.858;6.756;2023-02-26T15:59:03;2.03;;;1.00;;
68680;SDS011;55836;49.858;6.756;2023-02-26T16:01:31;2.40;;;1.53;;
68680;SDS011;55836;49.858;6.756;2023-02-26T16:04:00;3.17;;;2.37;;
68680;SDS011;55836;49.858;6.756;2023-02-26T16:06:29;2.93;;;2.40;;
68680;SDS011;55836;49.858;6.756;2023-02-26T16:08:55;2.83;;;2.10;;
68680;SDS011;55836;49.858;6.756;2023-02-26T16:11:22;1.60;;;1.50;;
68680;SDS011;55836;49.858;6.756;2023-02-26T16:13:49;2.17;;;1.60;;
68680;SDS011;55836;49.858;6.756;2023-02-26T16:17:02;1.30;;;1.20;;
68680;SDS011;55836;49.858;6.756;2023-02-26T16:19:02;2.37;;;1.60;;
68680;SDS011;55836;49.858;6.756;2023-02-26T16:21:37;1.63;;;1.27;;
68680;SDS011;55836;49.858;6.756;2023-02-26T16:24:06;1.30;;;1.20;;
68680;SDS011;55836;49.858;6.756;2023-02-26T16:26:36;2.47;;;1.50;;
68680;SDS011;55836;49.858;6.756;2023-02-26T16:29:03;3.70;;;2.43;;
68680;SDS011;55836;49.858;6.756;2023-02-26T16:31:31;6.27;;;2.00;;
68680;SDS011;55836;49.858;6.756;2023-02-26T16:34:02;3.83;;;1.70;;
68680;SDS011;55836;49.858;6.756;2023-02-26T16:36:29;5.57;;;2.10;;
68680;SDS011;55836;49.858;6.756;2023-02-26T16:39:00;2.87;;;1.97;;
68680;SDS011;55836;49.858;6.756;2023-02-26T16:41:28;3.50;;;2.57;;
68680;SDS011;55836;49.858;6.756;2023-02-26T16:43:55;2.57;;;1.60;;
68680;SDS011;55836;49.858;6.756;2023-02-26T16:49:26;1.93;;;1.83;;
68680;SDS011;55836;49.858;6.756;2023-02-26T16:51:54;2.53;;;1.87;;
68680;SDS011;55836;49.858;6.756;2023-02-26T16:56:47;1.50;;;1.40;;
68680;SDS011;55836;49.858;6.756;2023-02-26T16:59:16;3.73;;;1.70;;
68680;SDS011;55836;49.858;6.756;2023-02-26T17:04:16;2.97;;;1.60;;
68680;SDS011;55836;49.858;6.756;2023-02-26T17:06:43;3.93;;;2.00;;
68680;SDS011;55836;49.858;6.756;2023-02-26T17:14:53;9.00;;;4.22;;
68680;SDS011;55836;49.858;6.756;2023-02-26T17:17:20;5.77;;;3.47;;
68680;SDS011;55836;49.858;6.756;2023-02-26T17:19:46;5.40;;;2.60;;
68680;SDS011;55836;49.858;6.756;2023-02-26T17:22:13;3.60;;;1.80;;
68680;SDS011;55836;49.858;6.756;2023-02-26T17:24:40;3.17;;;2.07;;
68680;SDS011;55836;49.858;6.756;2023-02-26T17:27:10;4.60;;;2.80;;
68680;SDS011;55836;49.858;6.756;2023-02-26T17:29:39;1.47;;;1.30;;
68680;SDS011;55836;49.858;6.756;2023-02-26T17:32:11;3.97;;;2.50;;
68680;SDS011;55836;49.858;6.756;2023-02-26T17:34:38;2.07;;;1.63;;
68680;SDS011;55836;49.858;6.756;2023-02-26T17:37:04;2.30;;;1.60;;
68680;SDS011;55836;49.858;6.756;2023-02-26T17:39:32;1.57;;;1.47;;
68680;SDS011;55836;49.858;6.756;2023-02-26T17:41:58;2.10;;;1.77;;
68680;SDS011;55836;49.858;6.756;2023-02-26T17:44:24;3.00;;;1.70;;
68680;SDS011;55836;49.858;6.756;2023-02-26T17:46:50;1.77;;;1.50;;
68680;SDS011;55836;49.858;6.756;2023-02-26T17:49:16;2.23;;;1.37;;
68680;SDS011;55836;49.858;6.756;2023-02-26T17:51:42;3.33;;;1.87;;
68680;SDS011;55836;49.858;6.756;2023-02-26T17:54:08;4.60;;;2.17;;
68680;SDS011;55836;49.858;6.756;2023-02-26T17:56:34;3.47;;;2.40;;
68680;SDS011;55836;49.858;6.756;2023-02-26T17:59:01;4.97;;;3.50;;
68680;SDS011;55836;49.858;6.756;2023-02-26T18:01:28;3.40;;;2.40;;
68680;SDS011;55836;49.858;6.756;2023-02-26T18:03:54;2.37;;;2.10;;
68680;SDS011;55836;49.858;6.756;2023-02-26T18:06:21;6.80;;;3.10;;
68680;SDS011;55836;49.858;6.756;2023-02-26T18:08:47;5.37;;;2.33;;
68680;SDS011;55836;49.858;6.756;2023-02-26T18:11:14;3.83;;;2.47;;
68680;SDS011;55836;49.858;6.756;2023-02-26T18:13:40;4.70;;;2.30;;
68680;SDS011;55836;49.858;6.756;2023-02-26T18:16:10;3.37;;;2.00;;
68680;SDS011;55836;49.858;6.756;2023-02-26T18:18:39;13.70;;;5.57;;
68680;SDS011;55836;49.858;6.756;2023-02-26T18:21:05;7.63;;;3.53;;
68680;SDS011;55836;49.858;6.756;2023-02-26T18:23:31;1.57;;;1.23;;
68680;SDS011;55836;49.858;6.756;2023-02-26T18:25:57;4.53;;;3.40;;
68680;SDS011;55836;49.858;6.756;2023-02-26T18:28:26;1.50;;;1.40;;
68680;SDS011;55836;49.858;6.756;2023-02-26T18:30:52;2.17;;;1.40;;
68680;SDS011;55836;49.858;6.756;2023-02-26T18:33:19;1.30;;;1.20;;
68680;SDS011;55836;49.858;6.756;2023-02-26T18:35:47;1.67;;;1.40;;